sensor_id;sensor_type;location;lat;lon;timestamp;P1;durP1;ratioP1;P2;durP2;ratioP2
11090;SDS011;5599;52.210;21.046;2023-06-04T00:00:39;8.03;;;4.93;;
11090;SDS011;5599;52.210;21.046;2023-06-04T00:03:10;4.43;;;3.93;;
11090;SDS011;5599;52.210;21.046;2023-06-04T00:05:39;7.83;;;4.80;;
11090;SDS011;5599;52.210;21.046;2023-06-04T00:08:08;7.13;;;4.90;;
11090;SDS011;5599;52.210;21.046;2023-06-04T00:10:38;5.80;;;5.20;;
11090;SDS011;5599;52.210;21.046;2023-06-04T00:13:07;5.73;;;4.80;;
11090;SDS011;5599;52.210;21.046;2023-06-04T00:15:37;7.73;;;4.70;;
11090;SDS011;5599;52.210;21.046;2023-06-04T00:18:06;8.33;;;5.57;;
11090;SDS011;5599;52.210;21.046;2023-06-04T00:20:37;7.27;;;4.60;;
11090;SDS011;5599;52.210;21.046;2023-06-04T00:23:06;8.50;;;5.17;;
11090;SDS011;5599;52.210;21.046;2023-06-04T00:25:35;9.73;;;5.40;;
11090;SDS011;5599;52.210;21.046;2023-06-04T00:28:05;5.53;;;4.17;;
11090;SDS011;5599;52.210;21.046;2023-06-04T00:30:34;7.70;;;4.87;;
11090;SDS011;5599;52.210;21.046;2023-06-04T00:33:03;7.23;;;4.57;;
11090;SDS011;5599;52.210;21.046;2023-06-04T00:35:33;6.40;;;4.57;;
11090;SDS011;5599;52.210;21.046;2023-06-04T00:38:03;5.90;;;4.23;;
11090;SDS011;5599;52.210;21.046;2023-06-04T00:40:32;5.87;;;4.80;;
11090;SDS011;5599;52.210;21.046;2023-06-04T00:43:02;6.73;;;5.00;;
11090;SDS011;5599;52.210;21.046;2023-06-04T00:45:32;6.77;;;5.13;;
11090;SDS011;5599;52.210;21.046;2023-06-04T00:48:02;8.80;;;4.80;;
11090;SDS011;5599;52.210;21.046;2023-06-04T00:50:32;9.07;;;4.53;;
11090;SDS011;5599;52.210;21.046;2023-06-04T00:53:04;7.13;;;4.40;;
11090;SDS011;5599;52.210;21.046;2023-06-04T00:55:34;7.40;;;4.20;;
11090;SDS011;5599;52.210;21.046;2023-06-04T00:58:03;8.73;;;4.40;;
11090;SDS011;5599;52.210;21.046;2023-06-04T01:00:32;7.13;;;4.53;;
11090;SDS011;5599;52.210;21.046;2023-06-04T01:03:02;6.17;;;4.47;;
11090;SDS011;5599;52.210;21.046;2023-06-04T01:05:36;6.37;;;4.93;;
11090;SDS011;5599;52.210;21.046;2023-06-04T01:08:11;6.47;;;4.50;;
11090;SDS011;5599;52.210;21.046;2023-06-04T01:10:50;9.70;;;5.27;;
11090;SDS011;5599;52.210;21.046;2023-06-04T01:13:19;7.03;;;4.20;;
11090;SDS011;5599;52.210;21.046;2023-06-04T01:15:49;6.90;;;4.70;;
11090;SDS011;5599;52.210;21.046;2023-06-04T01:18:20;6.83;;;4.40;;
11090;SDS011;5599;52.210;21.046;2023-06-04T01:20:57;7.90;;;3.77;;
11090;SDS011;5599;52.210;21.046;2023-06-04T01:23:33;4.90;;;4.17;;
11090;SDS011;5599;52.210;21.046;2023-06-04T01:26:06;6.10;;;4.47;;
11090;SDS011;5599;52.210;21.046;2023-06-04T01:28:37;7.43;;;4.40;;
11090;SDS011;5599;52.210;21.046;2023-06-04T01:31:07;4.90;;;4.27;;
11090;SDS011;5599;52.210;21.046;2023-06-04T01:33:37;6.27;;;4.07;;
11090;SDS011;5599;52.210;21.046;2023-06-04T01:36:07;6.50;;;3.97;;
11090;SDS011;5599;52.210;21.046;2023-06-04T01:38:40;6.33;;;4.60;;
11090;SDS011;5599;52.210;21.046;2023-06-04T01:41:10;6.77;;;4.10;;
11090;SDS011;5599;52.210;21.046;2023-06-04T01:43:39;8.20;;;4.60;;
11090;SDS011;5599;52.210;21.046;2023-06-04T01:46:08;8.30;;;4.57;;
11090;SDS011;5599;52.210;21.046;2023-06-04T01:48:38;4.67;;;4.10;;
11090;SDS011;5599;52.210;21.046;2023-06-04T01:51:08;5.67;;;4.40;;
11090;SDS011;5599;52.210;21.046;2023-06-04T01:53:37;5.10;;;4.10;;
11090;SDS011;5599;52.210;21.046;2023-06-04T01:56:08;6.07;;;4.40;;
11090;SDS011;5599;52.210;21.046;2023-06-04T01:58:38;8.70;;;4.33;;
11090;SDS011;5599;52.210;21.046;2023-06-04T02:01:08;5.50;;;4.17;;
11090;SDS011;5599;52.210;21.046;2023-06-04T02:03:37;7.13;;;4.47;;
11090;SDS011;5599;52.210;21.046;2023-06-04T02:06:08;6.53;;;4.50;;
11090;SDS011;5599;52.210;21.046;2023-06-04T02:08:37;5.87;;;4.27;;
11090;SDS011;5599;52.210;21.046;2023-06-04T02:11:09;5.63;;;4.10;;
11090;SDS011;5599;52.210;21.046;2023-06-04T02:13:38;6.40;;;4.50;;
11090;SDS011;5599;52.210;21.046;2023-06-04T02:16:08;6.73;;;4.40;;
11090;SDS011;5599;52.210;21.046;2023-06-04T02:18:37;7.33;;;4.37;;
11090;SDS011;5599;52.210;21.046;2023-06-04T02:21:07;6.57;;;4.17;;
11090;SDS011;5599;52.210;21.046;2023-06-04T02:23:36;6.20;;;4.47;;
11090;SDS011;5599;52.210;21.046;2023-06-04T02:26:05;6.00;;;3.80;;
11090;SDS011;5599;52.210;21.046;2023-06-04T02:28:36;7.53;;;4.23;;
11090;SDS011;5599;52.210;21.046;2023-06-04T02:31:05;5.73;;;4.17;;
11090;SDS011;5599;52.210;21.046;2023-06-04T02:33:35;4.70;;;3.93;;
11090;SDS011;5599;52.210;21.046;2023-06-04T02:36:04;7.23;;;4.83;;
11090;SDS011;5599;52.210;21.046;2023-06-04T02:38:36;6.73;;;4.20;;
11090;SDS011;5599;52.210;21.046;2023-06-04T02:41:05;7.47;;;4.00;;
11090;SDS011;5599;52.210;21.046;2023-06-04T02:43:36;7.03;;;4.03;;
11090;SDS011;5599;52.210;21.046;2023-06-04T02:46:05;6.33;;;4.60;;
11090;SDS011;5599;52.210;21.046;2023-06-04T02:48:35;5.07;;;3.77;;
11090;SDS011;5599;52.210;21.046;2023-06-04T02:51:04;3.90;;;3.33;;
11090;SDS011;5599;52.210;21.046;2023-06-04T02:53:37;5.33;;;3.30;;
11090;SDS011;5599;52.210;21.046;2023-06-04T02:56:07;5.53;;;3.57;;
11090;SDS011;5599;52.210;21.046;2023-06-04T02:58:37;4.37;;;3.30;;
11090;SDS011;5599;52.210;21.046;2023-06-04T03:01:17;5.47;;;3.30;;
11090;SDS011;5599;52.210;21.046;2023-06-04T03:03:48;5.20;;;3.80;;
11090;SDS011;5599;52.210;21.046;2023-06-04T03:06:18;4.63;;;3.30;;
11090;SDS011;5599;52.210;21.046;2023-06-04T03:08:49;4.47;;;3.37;;
11090;SDS011;5599;52.210;21.046;2023-06-04T03:11:19;5.40;;;3.40;;
11090;SDS011;5599;52.210;21.046;2023-06-04T03:13:50;5.03;;;3.33;;
11090;SDS011;5599;52.210;21.046;2023-06-04T03:16:20;5.70;;;3.23;;
11090;SDS011;5599;52.210;21.046;2023-06-04T03:18:49;5.03;;;3.00;;
11090;SDS011;5599;52.210;21.046;2023-06-04T03:21:19;6.73;;;3.30;;
11090;SDS011;5599;52.210;21.046;2023-06-04T03:23:48;8.70;;;3.57;;
11090;SDS011;5599;52.210;21.046;2023-06-04T03:26:18;8.03;;;3.47;;
11090;SDS011;5599;52.210;21.046;2023-06-04T03:28:47;4.73;;;3.50;;
11090;SDS011;5599;52.210;21.046;2023-06-04T03:31:20;6.87;;;3.60;;
11090;SDS011;5599;52.210;21.046;2023-06-04T03:33:49;4.97;;;3.47;;
11090;SDS011;5599;52.210;21.046;2023-06-04T03:36:19;3.80;;;3.27;;
11090;SDS011;5599;52.210;21.046;2023-06-04T03:39:01;3.90;;;3.43;;
11090;SDS011;5599;52.210;21.046;2023-06-04T03:41:31;4.90;;;3.63;;
11090;SDS011;5599;52.210;21.046;2023-06-04T03:44:01;3.60;;;3.17;;
11090;SDS011;5599;52.210;21.046;2023-06-04T03:46:33;4.73;;;3.53;;
11090;SDS011;5599;52.210;21.046;2023-06-04T03:49:03;3.97;;;3.53;;
11090;SDS011;5599;52.210;21.046;2023-06-04T03:51:32;3.77;;;3.33;;
11090;SDS011;5599;52.210;21.046;2023-06-04T03:54:02;4.20;;;3.43;;
11090;SDS011;5599;52.210;21.046;2023-06-04T03:56:32;6.20;;;3.50;;
11090;SDS011;5599;52.210;21.046;2023-06-04T03:59:03;4.47;;;3.60;;
11090;SDS011;5599;52.210;21.046;2023-06-04T04:01:34;4.57;;;3.57;;
11090;SDS011;5599;52.210;21.046;2023-06-04T04:04:03;5.57;;;3.87;;
11090;SDS011;5599;52.210;21.046;2023-06-04T04:06:33;4.03;;;3.57;;
11090;SDS011;5599;52.210;21.046;2023-06-04T04:09:03;5.67;;;3.70;;
11090;SDS011;5599;52.210;21.046;2023-06-04T04:11:35;7.30;;;3.23;;
11090;SDS011;5599;52.210;21.046;2023-06-04T04:14:04;6.07;;;3.30;;
11090;SDS011;5599;52.210;21.046;2023-06-04T04:16:35;4.13;;;3.40;;
11090;SDS011;5599;52.210;21.046;2023-06-04T04:19:04;4.60;;;3.17;;
11090;SDS011;5599;52.210;21.046;2023-06-04T04:21:36;4.77;;;3.63;;
11090;SDS011;5599;52.210;21.046;2023-06-04T04:24:06;5.37;;;3.30;;
11090;SDS011;5599;52.210;21.046;2023-06-04T04:26:36;7.87;;;3.80;;
11090;SDS011;5599;52.210;21.046;2023-06-04T04:29:06;6.57;;;3.60;;
11090;SDS011;5599;52.210;21.046;2023-06-04T04:31:38;4.20;;;3.43;;
11090;SDS011;5599;52.210;21.046;2023-06-04T04:34:08;3.53;;;3.20;;
11090;SDS011;5599;52.210;21.046;2023-06-04T04:36:40;4.78;;;3.08;;
11090;SDS011;5599;52.210;21.046;2023-06-04T04:39:11;3.88;;;3.47;;
11090;SDS011;5599;52.210;21.046;2023-06-04T04:41:40;6.32;;;3.72;;
11090;SDS011;5599;52.210;21.046;2023-06-04T04:44:09;4.80;;;3.67;;
11090;SDS011;5599;52.210;21.046;2023-06-04T04:46:40;5.63;;;3.17;;
11090;SDS011;5599;52.210;21.046;2023-06-04T04:49:09;5.72;;;3.17;;
11090;SDS011;5599;52.210;21.046;2023-06-04T04:51:39;4.13;;;3.05;;
11090;SDS011;5599;52.210;21.046;2023-06-04T04:54:08;4.18;;;3.40;;
11090;SDS011;5599;52.210;21.046;2023-06-04T04:56:38;5.80;;;3.70;;
11090;SDS011;5599;52.210;21.046;2023-06-04T04:59:08;3.88;;;3.20;;
11090;SDS011;5599;52.210;21.046;2023-06-04T05:01:37;3.55;;;2.80;;
11090;SDS011;5599;52.210;21.046;2023-06-04T05:04:08;3.47;;;3.00;;
11090;SDS011;5599;52.210;21.046;2023-06-04T05:06:39;5.00;;;3.15;;
11090;SDS011;5599;52.210;21.046;2023-06-04T05:09:09;3.95;;;3.50;;
11090;SDS011;5599;52.210;21.046;2023-06-04T05:11:38;3.90;;;3.20;;
11090;SDS011;5599;52.210;21.046;2023-06-04T05:14:08;4.03;;;2.97;;
11090;SDS011;5599;52.210;21.046;2023-06-04T05:16:40;4.97;;;3.25;;
11090;SDS011;5599;52.210;21.046;2023-06-04T05:19:11;4.68;;;3.13;;
11090;SDS011;5599;52.210;21.046;2023-06-04T05:21:41;6.18;;;2.95;;
11090;SDS011;5599;52.210;21.046;2023-06-04T05:24:11;5.50;;;3.35;;
11090;SDS011;5599;52.210;21.046;2023-06-04T05:26:40;3.20;;;2.50;;
11090;SDS011;5599;52.210;21.046;2023-06-04T05:29:15;3.95;;;2.72;;
11090;SDS011;5599;52.210;21.046;2023-06-04T05:31:47;3.88;;;2.83;;
11090;SDS011;5599;52.210;21.046;2023-06-04T05:34:19;5.25;;;2.72;;
11090;SDS011;5599;52.210;21.046;2023-06-04T05:36:49;3.47;;;2.42;;
11090;SDS011;5599;52.210;21.046;2023-06-04T05:39:20;3.15;;;2.67;;
11090;SDS011;5599;52.210;21.046;2023-06-04T05:42:07;3.08;;;2.50;;
11090;SDS011;5599;52.210;21.046;2023-06-04T05:44:36;4.43;;;2.70;;
11090;SDS011;5599;52.210;21.046;2023-06-04T05:47:09;4.15;;;2.30;;
11090;SDS011;5599;52.210;21.046;2023-06-04T05:49:38;4.32;;;2.50;;
11090;SDS011;5599;52.210;21.046;2023-06-04T05:52:08;4.07;;;2.72;;
11090;SDS011;5599;52.210;21.046;2023-06-04T05:54:38;2.97;;;2.40;;
11090;SDS011;5599;52.210;21.046;2023-06-04T05:57:08;4.63;;;2.50;;
11090;SDS011;5599;52.210;21.046;2023-06-04T05:59:37;2.70;;;2.30;;
11090;SDS011;5599;52.210;21.046;2023-06-04T06:02:12;3.83;;;2.40;;
11090;SDS011;5599;52.210;21.046;2023-06-04T06:04:42;3.88;;;2.22;;
11090;SDS011;5599;52.210;21.046;2023-06-04T06:07:11;2.45;;;2.25;;
11090;SDS011;5599;52.210;21.046;2023-06-04T06:09:41;3.63;;;2.30;;
11090;SDS011;5599;52.210;21.046;2023-06-04T06:12:11;3.17;;;2.65;;
11090;SDS011;5599;52.210;21.046;2023-06-04T06:14:42;3.05;;;2.10;;
11090;SDS011;5599;52.210;21.046;2023-06-04T06:17:13;3.78;;;2.08;;
11090;SDS011;5599;52.210;21.046;2023-06-04T06:19:42;2.42;;;2.20;;
11090;SDS011;5599;52.210;21.046;2023-06-04T06:22:12;3.13;;;2.17;;
11090;SDS011;5599;52.210;21.046;2023-06-04T06:24:42;4.60;;;2.00;;
11090;SDS011;5599;52.210;21.046;2023-06-04T06:27:12;3.80;;;2.03;;
11090;SDS011;5599;52.210;21.046;2023-06-04T06:29:42;3.67;;;1.92;;
11090;SDS011;5599;52.210;21.046;2023-06-04T06:32:13;2.88;;;1.80;;
11090;SDS011;5599;52.210;21.046;2023-06-04T06:34:43;2.75;;;1.90;;
11090;SDS011;5599;52.210;21.046;2023-06-04T06:37:12;2.75;;;1.90;;
11090;SDS011;5599;52.210;21.046;2023-06-04T06:39:41;2.80;;;2.10;;
11090;SDS011;5599;52.210;21.046;2023-06-04T06:42:11;2.38;;;1.80;;
11090;SDS011;5599;52.210;21.046;2023-06-04T06:44:43;4.60;;;2.15;;
11090;SDS011;5599;52.210;21.046;2023-06-04T06:47:14;2.35;;;1.60;;
11090;SDS011;5599;52.210;21.046;2023-06-04T06:49:43;3.38;;;1.73;;
11090;SDS011;5599;52.210;21.046;2023-06-04T06:52:13;1.92;;;1.73;;
11090;SDS011;5599;52.210;21.046;2023-06-04T06:54:46;3.17;;;1.70;;
11090;SDS011;5599;52.210;21.046;2023-06-04T06:57:15;3.08;;;1.35;;
11090;SDS011;5599;52.210;21.046;2023-06-04T06:59:45;2.63;;;1.42;;
11090;SDS011;5599;52.210;21.046;2023-06-04T07:02:16;3.92;;;1.48;;
11090;SDS011;5599;52.210;21.046;2023-06-04T07:04:45;2.55;;;1.38;;
11090;SDS011;5599;52.210;21.046;2023-06-04T07:07:15;2.72;;;1.63;;
11090;SDS011;5599;52.210;21.046;2023-06-04T07:09:45;1.98;;;1.60;;
11090;SDS011;5599;52.210;21.046;2023-06-04T07:12:14;4.22;;;1.60;;
11090;SDS011;5599;52.210;21.046;2023-06-04T07:14:43;2.17;;;1.40;;
11090;SDS011;5599;52.210;21.046;2023-06-04T07:17:13;2.22;;;1.40;;
11090;SDS011;5599;52.210;21.046;2023-06-04T07:19:44;5.82;;;1.92;;
11090;SDS011;5599;52.210;21.046;2023-06-04T07:22:13;2.60;;;1.63;;
11090;SDS011;5599;52.210;21.046;2023-06-04T07:24:43;5.43;;;1.60;;
11090;SDS011;5599;52.210;21.046;2023-06-04T07:27:13;1.60;;;1.30;;
11090;SDS011;5599;52.210;21.046;2023-06-04T07:29:43;2.83;;;1.55;;
11090;SDS011;5599;52.210;21.046;2023-06-04T07:32:13;3.03;;;1.58;;
11090;SDS011;5599;52.210;21.046;2023-06-04T07:34:44;5.18;;;1.70;;
11090;SDS011;5599;52.210;21.046;2023-06-04T07:37:13;4.50;;;1.77;;
11090;SDS011;5599;52.210;21.046;2023-06-04T07:39:43;1.95;;;1.63;;
11090;SDS011;5599;52.210;21.046;2023-06-04T07:42:12;3.78;;;1.88;;
11090;SDS011;5599;52.210;21.046;2023-06-04T07:44:42;2.03;;;1.70;;
11090;SDS011;5599;52.210;21.046;2023-06-04T07:47:12;3.05;;;1.58;;
11090;SDS011;5599;52.210;21.046;2023-06-04T07:49:41;1.83;;;1.60;;
11090;SDS011;5599;52.210;21.046;2023-06-04T07:52:30;2.67;;;1.60;;
11090;SDS011;5599;52.210;21.046;2023-06-04T07:55:00;1.83;;;1.60;;
11090;SDS011;5599;52.210;21.046;2023-06-04T07:57:30;3.20;;;1.33;;
11090;SDS011;5599;52.210;21.046;2023-06-04T08:00:00;1.30;;;1.20;;
11090;SDS011;5599;52.210;21.046;2023-06-04T08:02:38;2.42;;;1.70;;
11090;SDS011;5599;52.210;21.046;2023-06-04T08:05:08;3.60;;;1.50;;
11090;SDS011;5599;52.210;21.046;2023-06-04T08:07:39;3.17;;;1.70;;
11090;SDS011;5599;52.210;21.046;2023-06-04T08:10:09;3.45;;;1.65;;
11090;SDS011;5599;52.210;21.046;2023-06-04T08:12:39;2.20;;;1.50;;
11090;SDS011;5599;52.210;21.046;2023-06-04T08:15:08;3.15;;;1.33;;
11090;SDS011;5599;52.210;21.046;2023-06-04T08:17:52;2.13;;;1.30;;
11090;SDS011;5599;52.210;21.046;2023-06-04T08:20:23;4.55;;;1.50;;
11090;SDS011;5599;52.210;21.046;2023-06-04T08:23:12;1.40;;;1.30;;
11090;SDS011;5599;52.210;21.046;2023-06-04T08:25:49;2.33;;;1.35;;
11090;SDS011;5599;52.210;21.046;2023-06-04T08:28:39;2.70;;;1.33;;
11090;SDS011;5599;52.210;21.046;2023-06-04T08:31:10;2.88;;;1.45;;
11090;SDS011;5599;52.210;21.046;2023-06-04T08:33:53;1.85;;;1.20;;
11090;SDS011;5599;52.210;21.046;2023-06-04T08:36:26;3.15;;;1.52;;
11090;SDS011;5599;52.210;21.046;2023-06-04T08:38:58;1.27;;;1.10;;
11090;SDS011;5599;52.210;21.046;2023-06-04T08:41:28;6.05;;;1.40;;
11090;SDS011;5599;52.210;21.046;2023-06-04T08:44:03;5.95;;;1.30;;
11090;SDS011;5599;52.210;21.046;2023-06-04T08:46:34;1.65;;;1.10;;
11090;SDS011;5599;52.210;21.046;2023-06-04T08:49:08;1.20;;;1.05;;
11090;SDS011;5599;52.210;21.046;2023-06-04T08:51:38;2.55;;;1.27;;
11090;SDS011;5599;52.210;21.046;2023-06-04T08:54:09;2.08;;;1.33;;
11090;SDS011;5599;52.210;21.046;2023-06-04T08:56:41;2.22;;;1.10;;
11090;SDS011;5599;52.210;21.046;2023-06-04T08:59:13;4.30;;;1.40;;
11090;SDS011;5599;52.210;21.046;2023-06-04T09:01:43;2.00;;;1.30;;
11090;SDS011;5599;52.210;21.046;2023-06-04T09:04:13;1.95;;;1.30;;
11090;SDS011;5599;52.210;21.046;2023-06-04T09:06:43;1.35;;;1.25;;
11090;SDS011;5599;52.210;21.046;2023-06-04T09:09:15;2.15;;;1.35;;
11090;SDS011;5599;52.210;21.046;2023-06-04T09:11:49;2.15;;;1.35;;
11090;SDS011;5599;52.210;21.046;2023-06-04T09:14:21;1.67;;;1.08;;
11090;SDS011;5599;52.210;21.046;2023-06-04T09:16:52;2.42;;;1.50;;
11090;SDS011;5599;52.210;21.046;2023-06-04T09:19:25;1.88;;;1.40;;
11090;SDS011;5599;52.210;21.046;2023-06-04T09:21:56;1.33;;;1.23;;
11090;SDS011;5599;52.210;21.046;2023-06-04T09:24:38;6.63;;;1.58;;
11090;SDS011;5599;52.210;21.046;2023-06-04T09:27:12;3.10;;;1.48;;
11090;SDS011;5599;52.210;21.046;2023-06-04T09:29:48;2.10;;;1.40;;
11090;SDS011;5599;52.210;21.046;2023-06-04T09:32:22;3.97;;;1.42;;
11090;SDS011;5599;52.210;21.046;2023-06-04T09:34:51;2.00;;;1.35;;
11090;SDS011;5599;52.210;21.046;2023-06-04T09:37:21;2.95;;;1.20;;
11090;SDS011;5599;52.210;21.046;2023-06-04T09:39:55;1.60;;;1.20;;
11090;SDS011;5599;52.210;21.046;2023-06-04T09:42:24;1.92;;;1.23;;
11090;SDS011;5599;52.210;21.046;2023-06-04T09:44:54;1.95;;;1.30;;
11090;SDS011;5599;52.210;21.046;2023-06-04T09:47:26;1.33;;;1.23;;
11090;SDS011;5599;52.210;21.046;2023-06-04T09:49:59;3.30;;;1.30;;
11090;SDS011;5599;52.210;21.046;2023-06-04T09:52:32;2.22;;;1.23;;
11090;SDS011;5599;52.210;21.046;2023-06-04T09:55:03;1.65;;;1.20;;
11090;SDS011;5599;52.210;21.046;2023-06-04T09:57:46;3.17;;;1.25;;
11090;SDS011;5599;52.210;21.046;2023-06-04T10:00:17;1.70;;;1.45;;
11090;SDS011;5599;52.210;21.046;2023-06-04T10:02:48;2.45;;;1.30;;
11090;SDS011;5599;52.210;21.046;2023-06-04T10:05:18;1.73;;;1.25;;
11090;SDS011;5599;52.210;21.046;2023-06-04T10:07:50;4.65;;;1.40;;
11090;SDS011;5599;52.210;21.046;2023-06-04T10:10:23;4.53;;;1.30;;
11090;SDS011;5599;52.210;21.046;2023-06-04T10:12:59;1.35;;;1.23;;
11090;SDS011;5599;52.210;21.046;2023-06-04T10:15:32;2.03;;;1.50;;
11090;SDS011;5599;52.210;21.046;2023-06-04T10:18:04;2.35;;;1.35;;
11090;SDS011;5599;52.210;21.046;2023-06-04T10:20:34;1.50;;;1.30;;
11090;SDS011;5599;52.210;21.046;2023-06-04T10:23:04;1.27;;;1.17;;
11090;SDS011;5599;52.210;21.046;2023-06-04T10:25:36;3.78;;;1.42;;
11090;SDS011;5599;52.210;21.046;2023-06-04T10:28:06;2.58;;;1.33;;
11090;SDS011;5599;52.210;21.046;2023-06-04T10:30:36;1.67;;;1.20;;
11090;SDS011;5599;52.210;21.046;2023-06-04T10:33:06;1.83;;;1.20;;
11090;SDS011;5599;52.210;21.046;2023-06-04T10:35:36;2.00;;;1.35;;
11090;SDS011;5599;52.210;21.046;2023-06-04T10:38:06;2.28;;;1.38;;
11090;SDS011;5599;52.210;21.046;2023-06-04T10:40:39;1.55;;;1.30;;
11090;SDS011;5599;52.210;21.046;2023-06-04T10:43:09;2.53;;;1.50;;
11090;SDS011;5599;52.210;21.046;2023-06-04T10:45:39;1.75;;;1.35;;
11090;SDS011;5599;52.210;21.046;2023-06-04T10:48:10;1.75;;;1.38;;
11090;SDS011;5599;52.210;21.046;2023-06-04T10:50:48;1.60;;;1.20;;
11090;SDS011;5599;52.210;21.046;2023-06-04T10:53:19;1.30;;;1.10;;
11090;SDS011;5599;52.210;21.046;2023-06-04T10:55:51;4.32;;;1.23;;
11090;SDS011;5599;52.210;21.046;2023-06-04T10:58:20;2.20;;;1.27;;
11090;SDS011;5599;52.210;21.046;2023-06-04T11:01:01;3.72;;;1.50;;
11090;SDS011;5599;52.210;21.046;2023-06-04T11:03:37;1.45;;;1.35;;
11090;SDS011;5599;52.210;21.046;2023-06-04T11:06:16;1.77;;;1.02;;
11090;SDS011;5599;52.210;21.046;2023-06-04T11:08:47;2.25;;;1.05;;
11090;SDS011;5599;52.210;21.046;2023-06-04T11:11:18;2.15;;;1.27;;
11090;SDS011;5599;52.210;21.046;2023-06-04T11:13:47;1.30;;;1.20;;
11090;SDS011;5599;52.210;21.046;2023-06-04T11:16:16;2.38;;;1.40;;
11090;SDS011;5599;52.210;21.046;2023-06-04T11:18:53;4.30;;;1.23;;
11090;SDS011;5599;52.210;21.046;2023-06-04T11:21:23;2.45;;;1.25;;
11090;SDS011;5599;52.210;21.046;2023-06-04T11:23:54;1.63;;;1.20;;
11090;SDS011;5599;52.210;21.046;2023-06-04T11:26:31;3.50;;;1.38;;
11090;SDS011;5599;52.210;21.046;2023-06-04T11:29:05;2.97;;;1.33;;
11090;SDS011;5599;52.210;21.046;2023-06-04T11:31:42;2.38;;;1.30;;
11090;SDS011;5599;52.210;21.046;2023-06-04T11:34:21;6.28;;;5.30;;
11090;SDS011;5599;52.210;21.046;2023-06-04T11:36:51;2.65;;;1.88;;
11090;SDS011;5599;52.210;21.046;2023-06-04T11:39:21;4.32;;;2.22;;
11090;SDS011;5599;52.210;21.046;2023-06-04T11:41:52;1.48;;;1.15;;
11090;SDS011;5599;52.210;21.046;2023-06-04T11:44:24;2.85;;;1.27;;
11090;SDS011;5599;52.210;21.046;2023-06-04T11:46:53;2.17;;;1.33;;
11090;SDS011;5599;52.210;21.046;2023-06-04T11:49:23;1.73;;;1.38;;
11090;SDS011;5599;52.210;21.046;2023-06-04T11:51:53;3.50;;;1.30;;
11090;SDS011;5599;52.210;21.046;2023-06-04T11:54:22;1.20;;;1.10;;
11090;SDS011;5599;52.210;21.046;2023-06-04T11:56:53;2.60;;;1.20;;
11090;SDS011;5599;52.210;21.046;2023-06-04T11:59:23;1.70;;;1.30;;
11090;SDS011;5599;52.210;21.046;2023-06-04T12:01:53;2.22;;;1.20;;
11090;SDS011;5599;52.210;21.046;2023-06-04T12:04:23;5.72;;;1.30;;
11090;SDS011;5599;52.210;21.046;2023-06-04T12:06:52;1.77;;;1.40;;
11090;SDS011;5599;52.210;21.046;2023-06-04T12:09:24;2.10;;;1.25;;
11090;SDS011;5599;52.210;21.046;2023-06-04T12:11:58;3.28;;;1.30;;
11090;SDS011;5599;52.210;21.046;2023-06-04T12:14:28;3.50;;;1.20;;
11090;SDS011;5599;52.210;21.046;2023-06-04T12:16:59;2.03;;;1.40;;
11090;SDS011;5599;52.210;21.046;2023-06-04T12:19:30;1.92;;;1.40;;
11090;SDS011;5599;52.210;21.046;2023-06-04T12:22:00;1.42;;;1.33;;
11090;SDS011;5599;52.210;21.046;2023-06-04T12:24:31;1.70;;;1.33;;
11090;SDS011;5599;52.210;21.046;2023-06-04T12:27:05;1.30;;;1.20;;
11090;SDS011;5599;52.210;21.046;2023-06-04T12:29:35;2.92;;;1.40;;
11090;SDS011;5599;52.210;21.046;2023-06-04T12:32:05;1.60;;;1.40;;
11090;SDS011;5599;52.210;21.046;2023-06-04T12:34:38;2.10;;;1.20;;
11090;SDS011;5599;52.210;21.046;2023-06-04T12:37:09;1.20;;;1.10;;
11090;SDS011;5599;52.210;21.046;2023-06-04T12:39:38;1.73;;;1.35;;
11090;SDS011;5599;52.210;21.046;2023-06-04T12:42:09;3.55;;;1.33;;
11090;SDS011;5599;52.210;21.046;2023-06-04T12:44:39;1.83;;;1.42;;
11090;SDS011;5599;52.210;21.046;2023-06-04T12:47:09;2.80;;;1.27;;
11090;SDS011;5599;52.210;21.046;2023-06-04T12:49:38;1.83;;;1.30;;
11090;SDS011;5599;52.210;21.046;2023-06-04T12:52:08;2.88;;;1.30;;
11090;SDS011;5599;52.210;21.046;2023-06-04T12:54:37;3.15;;;1.30;;
11090;SDS011;5599;52.210;21.046;2023-06-04T12:57:07;1.48;;;1.20;;
11090;SDS011;5599;52.210;21.046;2023-06-04T12:59:38;1.83;;;1.15;;
11090;SDS011;5599;52.210;21.046;2023-06-04T13:02:07;1.77;;;1.40;;
11090;SDS011;5599;52.210;21.046;2023-06-04T13:04:37;2.40;;;1.30;;
11090;SDS011;5599;52.210;21.046;2023-06-04T13:07:06;2.08;;;1.40;;
11090;SDS011;5599;52.210;21.046;2023-06-04T13:09:35;1.50;;;1.33;;
11090;SDS011;5599;52.210;21.046;2023-06-04T13:12:05;4.13;;;1.40;;
11090;SDS011;5599;52.210;21.046;2023-06-04T13:14:38;2.17;;;1.35;;
11090;SDS011;5599;52.210;21.046;2023-06-04T13:17:07;2.55;;;1.58;;
11090;SDS011;5599;52.210;21.046;2023-06-04T13:19:48;2.88;;;1.30;;
11090;SDS011;5599;52.210;21.046;2023-06-04T13:22:19;3.83;;;1.33;;
11090;SDS011;5599;52.210;21.046;2023-06-04T13:24:48;2.58;;;1.30;;
11090;SDS011;5599;52.210;21.046;2023-06-04T13:27:17;2.03;;;1.30;;
11090;SDS011;5599;52.210;21.046;2023-06-04T13:29:49;4.30;;;1.52;;
11090;SDS011;5599;52.210;21.046;2023-06-04T13:32:18;6.18;;;1.70;;
11090;SDS011;5599;52.210;21.046;2023-06-04T13:34:48;6.15;;;1.40;;
11090;SDS011;5599;52.210;21.046;2023-06-04T13:37:17;2.40;;;1.60;;
11090;SDS011;5599;52.210;21.046;2023-06-04T13:39:47;3.15;;;1.50;;
11090;SDS011;5599;52.210;21.046;2023-06-04T13:42:16;1.77;;;1.40;;
11090;SDS011;5599;52.210;21.046;2023-06-04T13:44:45;1.98;;;1.48;;
11090;SDS011;5599;52.210;21.046;2023-06-04T13:47:16;2.80;;;1.30;;
11090;SDS011;5599;52.210;21.046;2023-06-04T13:49:46;2.55;;;1.33;;
11090;SDS011;5599;52.210;21.046;2023-06-04T13:52:15;2.30;;;1.52;;
11090;SDS011;5599;52.210;21.046;2023-06-04T13:54:44;2.50;;;1.50;;
11090;SDS011;5599;52.210;21.046;2023-06-04T13:57:14;2.63;;;1.45;;
11090;SDS011;5599;52.210;21.046;2023-06-04T13:59:43;1.48;;;1.30;;
11090;SDS011;5599;52.210;21.046;2023-06-04T14:02:12;2.38;;;1.40;;
11090;SDS011;5599;52.210;21.046;2023-06-04T14:04:43;1.90;;;1.40;;
11090;SDS011;5599;52.210;21.046;2023-06-04T14:07:13;2.47;;;1.48;;
11090;SDS011;5599;52.210;21.046;2023-06-04T14:09:43;3.53;;;1.80;;
11090;SDS011;5599;52.210;21.046;2023-06-04T14:12:12;3.58;;;1.42;;
11090;SDS011;5599;52.210;21.046;2023-06-04T14:14:45;2.28;;;1.30;;
11090;SDS011;5599;52.210;21.046;2023-06-04T14:17:14;2.78;;;1.30;;
11090;SDS011;5599;52.210;21.046;2023-06-04T14:19:45;2.13;;;1.30;;
11090;SDS011;5599;52.210;21.046;2023-06-04T14:22:15;1.20;;;1.10;;
11090;SDS011;5599;52.210;21.046;2023-06-04T14:24:44;1.60;;;1.35;;
11090;SDS011;5599;52.210;21.046;2023-06-04T14:27:14;2.03;;;1.50;;
11090;SDS011;5599;52.210;21.046;2023-06-04T14:29:46;2.97;;;1.40;;
11090;SDS011;5599;52.210;21.046;2023-06-04T14:32:15;1.50;;;1.40;;
11090;SDS011;5599;52.210;21.046;2023-06-04T14:34:46;1.42;;;1.23;;
11090;SDS011;5599;52.210;21.046;2023-06-04T14:37:16;2.90;;;1.30;;
11090;SDS011;5599;52.210;21.046;2023-06-04T14:39:46;1.65;;;1.38;;
11090;SDS011;5599;52.210;21.046;2023-06-04T14:42:16;3.08;;;1.40;;
11090;SDS011;5599;52.210;21.046;2023-06-04T14:44:46;2.20;;;1.55;;
11090;SDS011;5599;52.210;21.046;2023-06-04T14:47:15;2.28;;;1.50;;
11090;SDS011;5599;52.210;21.046;2023-06-04T14:49:44;1.75;;;1.20;;
11090;SDS011;5599;52.210;21.046;2023-06-04T14:52:15;1.85;;;1.50;;
11090;SDS011;5599;52.210;21.046;2023-06-04T14:54:45;1.58;;;1.35;;
11090;SDS011;5599;52.210;21.046;2023-06-04T14:57:14;2.50;;;1.80;;
11090;SDS011;5599;52.210;21.046;2023-06-04T14:59:47;1.77;;;1.58;;
11090;SDS011;5599;52.210;21.046;2023-06-04T15:02:17;4.80;;;1.48;;
11090;SDS011;5599;52.210;21.046;2023-06-04T15:04:49;1.90;;;1.50;;
11090;SDS011;5599;52.210;21.046;2023-06-04T15:07:19;1.50;;;1.40;;
11090;SDS011;5599;52.210;21.046;2023-06-04T15:09:48;4.35;;;1.35;;